Terminal Aerodrome Forecast
Issued by NWS

Home | Current Version | Previous Version | Text Only | Print | Product List | Glossary On
Versions: 1 2 3 4 5 6 7 8 9 10 11 12 13 14 15 16 17 18 19 20
982
FTUS41 KBTV 030542
TAFMPV
TAF
KMPV 030542Z 0306/0406 29008KT P6SM BKN012 OVC045
      TEMPO 0308/0312 BKN007 OVC012
     FM031200 00000KT P6SM OVC015
     FM031700 00000KT P6SM BKN070
     FM040100 00000KT P6SM SCT060
     FM040300 00000KT P6SM BKN050=

USA.gov is the U.S. government's official web portal to all federal, state and local government web resources and services.